Time;durP1;ratioP1;P1;durP2;ratioP2;P2;SDS_P1;SDS_P2;PMS_P1;PMS_P2;Temp;Humidity;BMP_temperature;BMP_pressure;BME280_temperature;BME280_humidity;BME280_pressure;Samples;Min_cycle;Max_cycle;Signal;HPM_P1;HPM_P2
2023/12/23 00:02:10;;;;;;;48.78;33.15;;;;;;;;;;4999150;28;20105;-67
2023/12/23 00:04:36;;;;;;;49.05;32.47;;;;;;;;;;5006937;28;20391;-68
2023/12/23 00:07:02;;;;;;;47.65;32.70;;;;;;;;;;5002300;28;20029;-69
2023/12/23 00:09:28;;;;;;;46.88;32.38;;;;;;;;;;5006098;28;20014;-70
2023/12/23 00:11:54;;;;;;;48.63;31.20;;;;;;;;;;5009824;28;20129;-68
2023/12/23 00:14:20;;;;;;;50.47;32.40;;;;;;;;;;5003192;28;20102;-70
2023/12/23 00:16:47;;;;;;;49.15;32.17;;;;;;;;;;5003852;28;20034;-70
2023/12/23 00:19:13;;;;;;;52.28;32.97;;;;;;;;;;5006181;28;20017;-68
2023/12/23 00:21:39;;;;;;;48.75;31.98;;;;;;;;;;5005616;28;20029;-67
2023/12/23 00:24:05;;;;;;;43.90;30.70;;;;;;;;;;5003076;28;20391;-68
2023/12/23 00:26:31;;;;;;;45.22;30.25;;;;;;;;;;5002882;28;20403;-69
2023/12/23 00:28:57;;;;;;;46.50;31.35;;;;;;;;;;5005062;28;20022;-67
2023/12/23 00:31:23;;;;;;;49.58;29.70;;;;;;;;;;5005004;28;20014;-69
2023/12/23 00:33:49;;;;;;;57.42;29.67;;;;;;;;;;5013453;28;20026;-69
2023/12/23 00:36:15;;;;;;;45.00;29.25;;;;;;;;;;5007579;28;20392;-69
2023/12/23 00:38:42;;;;;;;43.50;29.02;;;;;;;;;;5002266;28;20023;-68
2023/12/23 00:41:08;;;;;;;43.60;29.38;;;;;;;;;;5005044;28;20024;-69
2023/12/23 00:43:34;;;;;;;45.85;29.52;;;;;;;;;;5004474;28;20030;-69
2023/12/23 00:46:00;;;;;;;46.40;29.55;;;;;;;;;;5009488;28;20033;-70
2023/12/23 00:48:26;;;;;;;42.40;28.38;;;;;;;;;;5001898;28;20034;-69
2023/12/23 00:50:52;;;;;;;41.67;27.38;;;;;;;;;;5011155;28;20034;-69
2023/12/23 00:53:18;;;;;;;41.55;27.23;;;;;;;;;;5004715;28;20084;-69
2023/12/23 00:55:44;;;;;;;40.78;27.02;;;;;;;;;;5004543;28;20053;-69
2023/12/23 00:58:10;;;;;;;39.40;26.70;;;;;;;;;;5008500;28;20046;-69
2023/12/23 01:00:37;;;;;;;40.22;27.13;;;;;;;;;;5010650;28;20096;-69
2023/12/23 01:03:03;;;;;;;41.95;26.75;;;;;;;;;;5005345;28;20339;-70
2023/12/23 01:05:29;;;;;;;38.40;26.65;;;;;;;;;;5012368;28;20483;-68
2023/12/23 01:07:55;;;;;;;40.20;26.50;;;;;;;;;;5001466;28;20030;-69
2023/12/23 01:10:24;;;;;;;41.40;27.27;;;;;;;;;;5005325;28;20531;-69
2023/12/23 01:12:50;;;;;;;36.97;26.00;;;;;;;;;;5003431;28;20030;-67
2023/12/23 01:15:16;;;;;;;40.88;27.13;;;;;;;;;;5003768;28;20018;-67
2023/12/23 01:17:42;;;;;;;40.67;26.98;;;;;;;;;;5003460;28;20491;-68
2023/12/23 01:20:08;;;;;;;38.92;24.95;;;;;;;;;;5000512;28;20018;-68
2023/12/23 01:22:34;;;;;;;33.72;23.67;;;;;;;;;;5009125;28;20561;-67
2023/12/23 01:25:00;;;;;;;39.55;25.52;;;;;;;;;;5012039;28;20069;-67
2023/12/23 01:27:26;;;;;;;34.60;24.33;;;;;;;;;;5004155;28;20029;-67
2023/12/23 01:29:52;;;;;;;33.20;22.58;;;;;;;;;;5001649;28;20014;-68
2023/12/23 01:32:18;;;;;;;32.75;22.80;;;;;;;;;;5006202;28;20185;-70
2023/12/23 01:34:44;;;;;;;35.35;22.80;;;;;;;;;;5011442;28;20030;-67
2023/12/23 01:37:10;;;;;;;37.50;23.67;;;;;;;;;;5012287;28;20108;-68
2023/12/23 01:39:36;;;;;;;34.90;23.60;;;;;;;;;;5011443;28;20622;-67
2023/12/23 01:42:02;;;;;;;35.25;22.83;;;;;;;;;;5000408;28;20038;-65
2023/12/23 01:44:28;;;;;;;15.93;10.73;;;;;;;;;;5000785;28;20041;-65
2023/12/23 01:46:55;;;;;;;17.55;11.68;;;;;;;;;;5002764;28;20034;-65
2023/12/23 01:49:21;;;;;;;15.52;9.55;;;;;;;;;;5003562;28;20032;-65
2023/12/23 01:51:48;;;;;;;14.48;9.07;;;;;;;;;;5001516;28;20117;-64
2023/12/23 01:54:14;;;;;;;10.10;6.85;;;;;;;;;;5020945;28;20021;-65
2023/12/23 01:56:40;;;;;;;18.50;11.35;;;;;;;;;;5003476;28;20034;-68
2023/12/23 01:59:06;;;;;;;19.70;11.98;;;;;;;;;;5005211;28;20140;-67
2023/12/23 02:01:32;;;;;;;22.83;12.20;;;;;;;;;;5003254;28;20022;-67
2023/12/23 02:03:58;;;;;;;21.67;11.13;;;;;;;;;;5000238;28;20029;-66
2023/12/23 02:06:24;;;;;;;21.92;12.82;;;;;;;;;;5000515;28;20391;-66
2023/12/23 02:08:50;;;;;;;18.33;11.57;;;;;;;;;;5009920;28;20026;-66
2023/12/23 02:11:20;;;;;;;16.98;10.60;;;;;;;;;;5009037;28;20018;-66
2023/12/23 02:13:52;;;;;;;19.02;11.35;;;;;;;;;;5001841;28;20030;-66
2023/12/23 02:16:18;;;;;;;18.70;11.82;;;;;;;;;;5000212;28;20021;-66
2023/12/23 02:18:45;;;;;;;19.08;10.65;;;;;;;;;;5000558;28;20038;-65
2023/12/23 02:21:11;;;;;;;19.73;11.40;;;;;;;;;;5003108;28;20458;-66
2023/12/23 02:23:37;;;;;;;18.92;11.52;;;;;;;;;;5002623;28;20050;-65
2023/12/23 02:26:03;;;;;;;15.45;10.40;;;;;;;;;;4999680;28;20443;-66
2023/12/23 02:28:29;;;;;;;16.33;10.65;;;;;;;;;;4999577;28;20109;-66
2023/12/23 02:30:57;;;;;;;16.15;10.77;;;;;;;;;;5001141;28;20117;-66
2023/12/23 02:33:23;;;;;;;16.10;10.77;;;;;;;;;;5002779;28;20479;-67
2023/12/23 02:35:52;;;;;;;15.13;10.15;;;;;;;;;;5000862;28;20053;-66
2023/12/23 02:38:20;;;;;;;17.42;10.07;;;;;;;;;;4999387;28;20022;-66
2023/12/23 02:40:46;;;;;;;17.63;10.70;;;;;;;;;;5023521;28;20128;-66
2023/12/23 02:43:12;;;;;;;18.02;10.38;;;;;;;;;;5002394;28;20093;-67
2023/12/23 02:45:38;;;;;;;18.70;10.45;;;;;;;;;;5010381;28;20030;-66
2023/12/23 02:48:05;;;;;;;15.45;9.82;;;;;;;;;;4999212;28;20104;-67
2023/12/23 02:50:31;;;;;;;16.65;11.13;;;;;;;;;;5006546;28;20029;-67
2023/12/23 02:53:00;;;;;;;16.42;9.60;;;;;;;;;;5002264;28;20053;-66
2023/12/23 02:55:25;;;;;;;18.92;10.07;;;;;;;;;;5010289;28;20022;-67
2023/12/23 02:57:51;;;;;;;17.02;10.85;;;;;;;;;;5002068;28;20026;-67
2023/12/23 03:00:18;;;;;;;13.77;9.30;;;;;;;;;;5002915;28;20011;-67
2023/12/23 03:02:44;;;;;;;17.42;9.10;;;;;;;;;;4999958;28;20433;-66
2023/12/23 03:05:09;;;;;;;13.05;8.38;;;;;;;;;;5002163;28;20156;-67
2023/12/23 03:07:36;;;;;;;15.18;8.70;;;;;;;;;;5001796;28;20033;-69
2023/12/23 03:10:02;;;;;;;14.27;8.77;;;;;;;;;;5008182;28;20030;-68
2023/12/23 03:12:28;;;;;;;16.98;8.32;;;;;;;;;;5002627;28;20041;-67
2023/12/23 03:14:54;;;;;;;14.23;9.30;;;;;;;;;;5000847;28;20483;-68
2023/12/23 03:17:20;;;;;;;21.67;8.95;;;;;;;;;;5002098;28;20064;-67
2023/12/23 03:19:46;;;;;;;14.07;8.60;;;;;;;;;;5000287;28;20018;-66
2023/12/23 03:22:12;;;;;;;14.13;8.50;;;;;;;;;;4998481;28;20038;-67
2023/12/23 03:24:38;;;;;;;15.13;8.38;;;;;;;;;;5006219;28;20018;-67
2023/12/23 03:27:04;;;;;;;14.73;8.55;;;;;;;;;;5002005;28;20380;-67
2023/12/23 03:29:30;;;;;;;14.40;8.90;;;;;;;;;;5001380;28;20084;-66
2023/12/23 03:31:56;;;;;;;13.23;8.10;;;;;;;;;;5005591;28;20034;-68
2023/12/23 03:34:22;;;;;;;15.90;8.23;;;;;;;;;;4998759;28;20031;-68
2023/12/23 03:36:49;;;;;;;15.63;8.32;;;;;;;;;;4999762;28;20026;-68
2023/12/23 03:39:14;;;;;;;15.70;7.82;;;;;;;;;;5001353;28;20509;-67
2023/12/23 03:41:41;;;;;;;15.70;7.78;;;;;;;;;;5000404;28;20026;-67
2023/12/23 03:44:06;;;;;;;17.13;7.95;;;;;;;;;;5001766;28;20022;-67
2023/12/23 03:46:32;;;;;;;17.25;8.05;;;;;;;;;;5008910;28;20022;-67
2023/12/23 03:48:58;;;;;;;11.35;7.53;;;;;;;;;;5000971;28;20033;-67
2023/12/23 03:51:24;;;;;;;13.57;7.97;;;;;;;;;;5001130;28;20061;-67
2023/12/23 03:53:51;;;;;;;12.45;7.80;;;;;;;;;;4999369;28;20129;-67
2023/12/23 03:56:17;;;;;;;13.48;7.30;;;;;;;;;;4998330;28;20025;-68
2023/12/23 03:58:43;;;;;;;13.93;6.97;;;;;;;;;;5000459;28;20394;-67
2023/12/23 04:01:10;;;;;;;10.93;7.28;;;;;;;;;;5001039;28;20076;-67
2023/12/23 04:03:36;;;;;;;11.02;7.10;;;;;;;;;;5001025;28;20018;-66
2023/12/23 04:06:02;;;;;;;13.88;7.18;;;;;;;;;;5005901;28;20054;-68
2023/12/23 04:08:28;;;;;;;14.05;7.38;;;;;;;;;;5004949;28;20057;-68
2023/12/23 04:10:54;;;;;;;13.00;7.15;;;;;;;;;;5006829;28;20041;-68
2023/12/23 04:13:20;;;;;;;13.93;7.15;;;;;;;;;;5001730;28;20049;-69
2023/12/23 04:15:46;;;;;;;10.98;6.50;;;;;;;;;;4999524;28;20105;-68
2023/12/23 04:18:12;;;;;;;12.00;7.28;;;;;;;;;;4997942;28;20095;-66
2023/12/23 04:23:06;;;;;;;11.40;6.35;;;;;;;;;;5057633;23;20060;-67
2023/12/23 04:25:32;;;;;;;10.73;6.45;;;;;;;;;;5037590;28;20030;-67
2023/12/23 04:27:58;;;;;;;11.23;6.93;;;;;;;;;;5041867;28;20421;-66
2023/12/23 04:30:24;;;;;;;8.68;5.68;;;;;;;;;;5036423;28;20063;-66
2023/12/23 04:32:50;;;;;;;11.20;6.43;;;;;;;;;;5030083;28;20087;-65
2023/12/23 04:35:16;;;;;;;8.25;5.78;;;;;;;;;;5029665;28;20030;-67
2023/12/23 04:37:44;;;;;;;9.43;5.95;;;;;;;;;;5024604;28;20075;-67
2023/12/23 04:40:11;;;;;;;9.60;5.88;;;;;;;;;;5026414;28;20014;-67
2023/12/23 04:42:37;;;;;;;10.27;5.80;;;;;;;;;;5024333;28;20368;-65
2023/12/23 04:45:03;;;;;;;15.70;6.25;;;;;;;;;;5033346;28;20496;-68
2023/12/23 04:47:29;;;;;;;8.68;5.60;;;;;;;;;;5033292;28;20486;-68
2023/12/23 04:49:55;;;;;;;10.57;6.47;;;;;;;;;;5028200;28;20490;-69
2023/12/23 04:52:21;;;;;;;12.82;6.13;;;;;;;;;;5032025;28;20045;-66
2023/12/23 04:54:47;;;;;;;15.50;5.88;;;;;;;;;;5031064;28;20030;-65
2023/12/23 04:57:13;;;;;;;8.55;5.78;;;;;;;;;;5037001;28;20092;-66
2023/12/23 04:59:39;;;;;;;12.35;5.68;;;;;;;;;;5037712;28;20025;-66
2023/12/23 05:02:05;;;;;;;10.13;6.20;;;;;;;;;;5029892;28;20469;-67
2023/12/23 05:04:31;;;;;;;12.02;5.25;;;;;;;;;;5026497;28;20029;-66
2023/12/23 05:07:00;;;;;;;9.05;5.65;;;;;;;;;;5035010;28;20503;-67
2023/12/23 05:09:26;;;;;;;9.27;5.53;;;;;;;;;;5031366;28;20053;-68
2023/12/23 05:11:52;;;;;;;9.57;5.35;;;;;;;;;;5032182;28;20033;-68
2023/12/23 05:14:18;;;;;;;8.82;5.60;;;;;;;;;;5029996;28;20057;-68
2023/12/23 05:16:44;;;;;;;10.05;5.50;;;;;;;;;;5031335;28;20049;-66
2023/12/23 05:19:10;;;;;;;8.88;5.35;;;;;;;;;;5036584;28;20017;-66
2023/12/23 05:21:36;;;;;;;8.57;5.35;;;;;;;;;;5029825;28;20033;-67
2023/12/23 05:24:02;;;;;;;7.45;4.57;;;;;;;;;;5030172;28;20025;-67
2023/12/23 05:26:28;;;;;;;8.68;4.80;;;;;;;;;;5025918;28;20502;-67
2023/12/23 05:28:54;;;;;;;8.52;5.40;;;;;;;;;;5033712;28;20030;-67
2023/12/23 05:31:19;;;;;;;8.63;4.82;;;;;;;;;;5035817;28;20035;-67
2023/12/23 05:33:46;;;;;;;9.25;4.75;;;;;;;;;;5033517;28;20028;-68
2023/12/23 05:36:12;;;;;;;8.73;4.38;;;;;;;;;;5029602;28;20018;-69
2023/12/23 05:38:38;;;;;;;7.05;4.93;;;;;;;;;;5027563;28;20028;-69
2023/12/23 05:41:04;;;;;;;7.68;4.75;;;;;;;;;;5026939;28;20025;-68
2023/12/23 05:43:30;;;;;;;9.80;5.15;;;;;;;;;;5039870;28;20053;-67
2023/12/23 05:45:56;;;;;;;7.57;4.60;;;;;;;;;;5026626;28;20084;-67
2023/12/23 05:48:22;;;;;;;9.73;4.95;;;;;;;;;;5029404;28;20022;-68
2023/12/23 05:50:48;;;;;;;7.85;4.40;;;;;;;;;;5031579;28;20449;-68
2023/12/23 05:53:14;;;;;;;13.35;5.15;;;;;;;;;;5036019;28;20112;-68
2023/12/23 05:55:40;;;;;;;9.90;4.75;;;;;;;;;;5042319;28;20175;-68
2023/12/23 05:58:06;;;;;;;10.65;4.10;;;;;;;;;;5029031;28;20010;-68
2023/12/23 06:00:32;;;;;;;14.30;6.72;;;;;;;;;;5030918;28;20029;-68
2023/12/23 06:02:58;;;;;;;11.02;6.72;;;;;;;;;;5040850;28;20029;-66
2023/12/23 06:05:24;;;;;;;11.20;7.13;;;;;;;;;;5034885;28;20025;-68
2023/12/23 06:07:50;;;;;;;16.33;7.40;;;;;;;;;;5031987;28;20031;-67
2023/12/23 06:10:16;;;;;;;14.05;7.00;;;;;;;;;;5028733;28;20439;-68
2023/12/23 06:12:42;;;;;;;11.45;7.38;;;;;;;;;;5022312;28;20033;-67
2023/12/23 06:15:09;;;;;;;14.43;7.00;;;;;;;;;;5041143;28;20033;-69
2023/12/23 06:17:35;;;;;;;13.88;7.10;;;;;;;;;;5042790;28;20675;-68
2023/12/23 06:20:03;;;;;;;16.27;7.53;;;;;;;;;;5025515;28;20022;-68
2023/12/23 06:22:29;;;;;;;15.73;7.95;;;;;;;;;;5031369;28;20060;-68
2023/12/23 06:24:55;;;;;;;16.70;7.60;;;;;;;;;;5032102;28;20017;-67
2023/12/23 06:27:30;;;;;;;27.55;8.88;;;;;;;;;;5031490;28;20403;-77
2023/12/23 06:29:58;;;;;;;9.57;4.72;;;;;;;;;;5032051;28;20029;-77
2023/12/23 06:33:05;;;;;;;12.52;3.38;;;;;;;;;;5022370;22;20132;-77
2023/12/23 06:35:31;;;;;;;12.50;4.13;;;;;;;;;;5011136;28;20058;-68
2023/12/23 06:37:57;;;;;;;11.65;4.45;;;;;;;;;;5001089;28;20049;-69
2023/12/23 06:40:23;;;;;;;11.48;5.80;;;;;;;;;;5000774;28;20072;-70
2023/12/23 06:42:49;;;;;;;9.02;5.10;;;;;;;;;;5002040;28;20026;-68
2023/12/23 06:45:15;;;;;;;5.95;2.03;;;;;;;;;;5012382;28;20057;-71
2023/12/23 06:47:41;;;;;;;5.25;2.38;;;;;;;;;;5003197;28;20033;-68
2023/12/23 06:50:07;;;;;;;12.15;2.78;;;;;;;;;;4999924;28;20037;-68
2023/12/23 06:52:33;;;;;;;4.82;2.03;;;;;;;;;;5008006;28;20057;-68
2023/12/23 06:54:59;;;;;;;6.25;2.50;;;;;;;;;;5004142;28;20049;-68
2023/12/23 06:57:25;;;;;;;5.10;2.10;;;;;;;;;;5006491;28;20100;-67
2023/12/23 06:59:52;;;;;;;6.72;2.05;;;;;;;;;;5004062;28;20108;-69
2023/12/23 07:02:18;;;;;;;3.85;1.90;;;;;;;;;;4999949;28;20022;-69
2023/12/23 07:04:45;;;;;;;5.53;2.05;;;;;;;;;;5001137;28;20037;-69
2023/12/23 07:07:11;;;;;;;7.75;2.13;;;;;;;;;;5004112;28;20104;-69
2023/12/23 07:09:37;;;;;;;6.40;2.45;;;;;;;;;;5004164;28;20112;-68
2023/12/23 07:12:04;;;;;;;4.00;2.00;;;;;;;;;;5009961;28;20037;-70
2023/12/23 07:14:30;;;;;;;10.25;2.03;;;;;;;;;;5000856;28;20094;-69
2023/12/23 07:16:56;;;;;;;4.68;1.75;;;;;;;;;;5005782;28;20053;-68
2023/12/23 07:19:22;;;;;;;5.18;2.28;;;;;;;;;;5009603;28;20018;-70
2023/12/23 07:21:52;;;;;;;6.13;2.13;;;;;;;;;;5007808;28;20026;-69
2023/12/23 07:24:19;;;;;;;5.40;1.57;;;;;;;;;;5006594;28;20018;-69
2023/12/23 07:26:45;;;;;;;13.75;2.25;;;;;;;;;;5009255;28;20026;-69
2023/12/23 07:29:11;;;;;;;4.53;2.17;;;;;;;;;;5003537;28;20073;-69
2023/12/23 07:31:37;;;;;;;4.68;2.05;;;;;;;;;;5003076;28;20017;-71
2023/12/23 07:34:03;;;;;;;5.45;1.75;;;;;;;;;;5001995;28;20057;-70
2023/12/23 07:36:29;;;;;;;4.20;2.05;;;;;;;;;;5011212;28;20021;-69
2023/12/23 07:38:55;;;;;;;5.57;2.35;;;;;;;;;;5002787;28;20485;-69
2023/12/23 07:41:21;;;;;;;3.55;2.35;;;;;;;;;;5001135;28;20135;-67
2023/12/23 07:43:47;;;;;;;4.38;2.22;;;;;;;;;;5005053;28;20547;-69
2023/12/23 07:46:13;;;;;;;5.05;2.35;;;;;;;;;;5001546;28;20105;-70
2023/12/23 07:48:39;;;;;;;5.80;2.60;;;;;;;;;;5010804;28;20118;-67
2023/12/23 07:51:06;;;;;;;7.78;2.85;;;;;;;;;;5002536;28;20101;-69
2023/12/23 07:53:33;;;;;;;4.25;2.08;;;;;;;;;;5008912;28;20029;-71
2023/12/23 07:55:59;;;;;;;3.70;2.10;;;;;;;;;;4998557;28;20023;-69
2023/12/23 07:58:25;;;;;;;5.78;2.28;;;;;;;;;;4997937;28;20026;-70
2023/12/23 08:00:51;;;;;;;4.97;2.58;;;;;;;;;;5002492;28;20019;-70
2023/12/23 08:03:17;;;;;;;5.72;2.38;;;;;;;;;;5002439;28;20053;-74
2023/12/23 08:05:42;;;;;;;8.60;2.47;;;;;;;;;;5001796;28;20112;-71
2023/12/23 08:08:10;;;;;;;5.10;2.80;;;;;;;;;;5008841;28;20018;-70
2023/12/23 08:10:36;;;;;;;6.10;2.47;;;;;;;;;;5007115;28;20079;-70
2023/12/23 08:13:03;;;;;;;6.03;2.03;;;;;;;;;;5000328;28;20430;-67
2023/12/23 08:15:28;;;;;;;19.52;4.45;;;;;;;;;;5012167;28;20025;-66
2023/12/23 08:17:54;;;;;;;18.77;4.28;;;;;;;;;;5007822;28;20018;-69
2023/12/23 08:20:20;;;;;;;23.08;4.65;;;;;;;;;;5010477;28;20072;-68
2023/12/23 08:22:46;;;;;;;8.68;3.58;;;;;;;;;;5010534;28;20472;-66
2023/12/23 08:25:12;;;;;;;18.83;4.65;;;;;;;;;;5010096;28;20025;-66
2023/12/23 08:27:39;;;;;;;13.90;4.70;;;;;;;;;;5004623;28;20036;-65
2023/12/23 08:30:06;;;;;;;12.70;5.35;;;;;;;;;;5013008;28;20105;-66
2023/12/23 08:32:32;;;;;;;13.23;4.97;;;;;;;;;;5014844;28;20026;-69
2023/12/23 08:34:58;;;;;;;16.00;4.75;;;;;;;;;;5014887;28;20503;-69
2023/12/23 08:37:24;;;;;;;21.92;4.88;;;;;;;;;;5006970;28;20029;-68
2023/12/23 08:39:50;;;;;;;19.45;4.40;;;;;;;;;;5014034;28;20022;-67
2023/12/23 08:42:16;;;;;;;15.85;4.70;;;;;;;;;;5011626;28;20032;-67
2023/12/23 08:44:42;;;;;;;13.10;4.88;;;;;;;;;;5013200;28;20033;-65
2023/12/23 08:47:08;;;;;;;13.43;4.28;;;;;;;;;;5007024;28;20080;-67
2023/12/23 08:49:34;;;;;;;10.32;4.53;;;;;;;;;;5010909;28;20076;-65
2023/12/23 08:52:00;;;;;;;17.52;4.53;;;;;;;;;;5014611;28;20034;-65
2023/12/23 08:54:26;;;;;;;13.40;4.30;;;;;;;;;;5016702;28;20033;-66
2023/12/23 08:56:52;;;;;;;23.85;4.35;;;;;;;;;;5009861;28;20025;-66
2023/12/23 08:59:18;;;;;;;12.35;4.10;;;;;;;;;;5013520;28;20025;-66
2023/12/23 09:01:44;;;;;;;12.82;4.00;;;;;;;;;;5008232;28;20029;-63
2023/12/23 09:04:10;;;;;;;10.15;4.28;;;;;;;;;;5006953;28;20552;-67
2023/12/23 09:06:36;;;;;;;13.18;4.63;;;;;;;;;;5015438;28;20552;-67
2023/12/23 09:09:03;;;;;;;10.32;4.43;;;;;;;;;;5007887;28;20053;-67
2023/12/23 09:11:29;;;;;;;11.73;4.38;;;;;;;;;;5015630;28;20105;-67
2023/12/23 09:13:55;;;;;;;22.00;4.15;;;;;;;;;;5015700;28;20045;-67
2023/12/23 09:16:21;;;;;;;11.60;4.07;;;;;;;;;;5007667;28;20022;-69
2023/12/23 09:18:47;;;;;;;11.88;3.45;;;;;;;;;;5014601;28;20084;-70
2023/12/23 09:21:13;;;;;;;18.17;4.05;;;;;;;;;;5018939;28;20034;-65
2023/12/23 09:23:39;;;;;;;14.02;4.20;;;;;;;;;;5018941;28;20022;-66
2023/12/23 09:26:05;;;;;;;21.77;6.97;;;;;;;;;;5016202;28;20041;-68
2023/12/23 09:28:31;;;;;;;45.08;6.03;;;;;;;;;;5015366;28;20164;-69
2023/12/23 09:30:57;;;;;;;22.02;4.82;;;;;;;;;;5015357;28;20096;-66
2023/12/23 09:33:23;;;;;;;16.42;5.53;;;;;;;;;;5020615;28;20613;-66
2023/12/23 09:35:49;;;;;;;13.70;4.68;;;;;;;;;;5019534;28;20029;-66
2023/12/23 09:38:15;;;;;;;13.45;4.40;;;;;;;;;;5015667;28;20022;-63
2023/12/23 09:40:41;;;;;;;26.08;5.38;;;;;;;;;;5017939;28;20614;-63
2023/12/23 09:43:08;;;;;;;18.88;4.47;;;;;;;;;;5019516;28;20022;-66
2023/12/23 09:45:36;;;;;;;17.42;4.97;;;;;;;;;;5013116;28;20076;-66
2023/12/23 09:48:03;;;;;;;14.93;4.85;;;;;;;;;;5009879;28;20026;-66
2023/12/23 09:50:29;;;;;;;14.50;4.30;;;;;;;;;;5015804;28;20037;-64
2023/12/23 09:52:55;;;;;;;32.72;4.93;;;;;;;;;;5013103;28;20506;-65
2023/12/23 09:55:21;;;;;;;14.60;4.22;;;;;;;;;;5020865;28;20060;-62
2023/12/23 09:57:47;;;;;;;15.73;4.50;;;;;;;;;;5008698;28;20034;-65
2023/12/23 10:00:13;;;;;;;14.93;4.43;;;;;;;;;;5007388;28;20153;-66
2023/12/23 10:02:39;;;;;;;8.60;4.03;;;;;;;;;;5009478;28;20494;-65
2023/12/23 10:05:05;;;;;;;13.25;3.78;;;;;;;;;;5004726;28;20104;-66
2023/12/23 10:07:32;;;;;;;8.63;3.40;;;;;;;;;;5011901;28;20033;-66
2023/12/23 10:09:59;;;;;;;10.55;3.72;;;;;;;;;;5010029;28;20038;-65
2023/12/23 10:12:24;;;;;;;9.68;3.92;;;;;;;;;;5001311;28;20452;-66
2023/12/23 10:14:51;;;;;;;7.75;3.85;;;;;;;;;;5002942;28;20093;-66
2023/12/23 10:17:17;;;;;;;11.05;3.53;;;;;;;;;;5004751;28;20487;-65
2023/12/23 10:19:44;;;;;;;11.73;4.38;;;;;;;;;;5003803;28;20026;-66
2023/12/23 10:22:10;;;;;;;11.50;4.82;;;;;;;;;;5001382;28;20105;-66
2023/12/23 10:24:39;;;;;;;10.15;3.88;;;;;;;;;;5001521;28;20101;-66
2023/12/23 10:27:05;;;;;;;10.23;4.03;;;;;;;;;;5000865;28;20048;-65
2023/12/23 10:29:33;;;;;;;9.52;4.18;;;;;;;;;;5006134;28;20026;-67
2023/12/23 10:32:01;;;;;;;11.45;3.80;;;;;;;;;;5001513;28;20038;-69
2023/12/23 10:34:32;;;;;;;7.15;3.50;;;;;;;;;;5004516;28;20061;-66
2023/12/23 10:36:58;;;;;;;7.32;3.88;;;;;;;;;;5009270;28;20043;-66
2023/12/23 10:39:35;;;;;;;8.75;3.35;;;;;;;;;;5011541;28;20018;-66
2023/12/23 10:42:04;;;;;;;8.65;3.13;;;;;;;;;;5007547;28;20022;-66
2023/12/23 10:44:31;;;;;;;10.65;4.38;;;;;;;;;;5000812;28;20023;-67
2023/12/23 10:46:58;;;;;;;7.00;3.28;;;;;;;;;;5013189;28;20084;-67
2023/12/23 10:49:24;;;;;;;11.07;3.67;;;;;;;;;;5019309;28;20026;-67
2023/12/23 10:51:51;;;;;;;9.93;3.70;;;;;;;;;;5015484;28;20034;-66
2023/12/23 10:54:18;;;;;;;8.48;2.58;;;;;;;;;;5018688;28;20025;-66
2023/12/23 10:56:44;;;;;;;9.52;3.28;;;;;;;;;;5007502;28;20459;-65
2023/12/23 10:59:11;;;;;;;8.00;3.42;;;;;;;;;;5020073;28;20097;-65
2023/12/23 11:01:37;;;;;;;8.13;2.55;;;;;;;;;;5019225;28;20487;-66
2023/12/23 11:04:04;;;;;;;6.22;3.05;;;;;;;;;;5018636;28;20030;-66
2023/12/23 11:06:31;;;;;;;11.05;3.42;;;;;;;;;;4995413;28;20018;-68
2023/12/23 11:08:58;;;;;;;8.00;3.30;;;;;;;;;;5010607;28;20115;-67
2023/12/23 11:11:25;;;;;;;8.75;2.85;;;;;;;;;;5003157;28;20032;-67
2023/12/23 11:13:52;;;;;;;7.88;3.00;;;;;;;;;;4993325;28;20108;-67
2023/12/23 11:16:18;;;;;;;4.10;2.40;;;;;;;;;;4995673;28;20021;-68
2023/12/23 11:18:44;;;;;;;6.40;2.90;;;;;;;;;;4993648;28;20033;-67
2023/12/23 11:21:17;;;;;;;9.90;3.72;;;;;;;;;;4993835;28;20022;-68
2023/12/23 11:23:43;;;;;;;1.15;0.93;;;;;;;;;;5001300;28;20530;-67
2023/12/23 11:26:28;;;;;;;1.48;1.02;;;;;;;;;;4999944;28;20399;-67
2023/12/23 11:28:54;;;;;;;5.22;2.10;;;;;;;;;;4991989;28;20026;-68
2023/12/23 11:31:20;;;;;;;3.63;1.77;;;;;;;;;;5009846;28;20546;-69
2023/12/23 11:33:46;;;;;;;3.80;2.10;;;;;;;;;;5009543;28;20077;-68
2023/12/23 11:36:12;;;;;;;4.80;1.98;;;;;;;;;;5008417;28;20018;-67
2023/12/23 11:38:50;;;;;;;6.30;3.13;;;;;;;;;;5006755;28;20037;-68
2023/12/23 11:41:16;;;;;;;12.25;4.75;;;;;;;;;;5008326;28;20031;-68
2023/12/23 11:43:44;;;;;;;9.05;4.65;;;;;;;;;;5003063;28;20037;-67
2023/12/23 11:46:10;;;;;;;8.90;4.95;;;;;;;;;;4998254;28;20026;-68
2023/12/23 11:48:36;;;;;;;9.63;4.75;;;;;;;;;;4997668;28;20053;-66
2023/12/23 11:51:03;;;;;;;7.65;4.85;;;;;;;;;;4991306;28;20026;-67
2023/12/23 11:53:29;;;;;;;10.25;4.68;;;;;;;;;;4999511;28;20054;-67
2023/12/23 11:55:55;;;;;;;11.27;5.85;;;;;;;;;;4996691;28;20037;-67
2023/12/23 11:58:22;;;;;;;9.95;5.53;;;;;;;;;;4996725;28;20122;-67
2023/12/23 12:00:52;;;;;;;11.73;5.75;;;;;;;;;;5007214;28;20053;-67
2023/12/23 12:03:18;;;;;;;12.35;5.45;;;;;;;;;;4990922;28;20098;-67
2023/12/23 12:05:44;;;;;;;8.10;5.30;;;;;;;;;;4995205;28;20105;-67
2023/12/23 12:08:10;;;;;;;9.02;5.43;;;;;;;;;;4995063;28;20026;-67
2023/12/23 12:10:37;;;;;;;7.70;4.40;;;;;;;;;;5002234;28;20034;-68
2023/12/23 12:13:03;;;;;;;9.70;5.30;;;;;;;;;;4996824;28;20089;-66
2023/12/23 12:15:29;;;;;;;8.85;5.18;;;;;;;;;;5005860;28;20018;-67
2023/12/23 12:17:55;;;;;;;9.27;4.50;;;;;;;;;;5004997;28;20072;-66
2023/12/23 12:20:23;;;;;;;8.68;5.07;;;;;;;;;;5010249;28;20029;-66
2023/12/23 12:22:49;;;;;;;8.40;4.93;;;;;;;;;;5013415;28;20022;-67
2023/12/23 12:25:15;;;;;;;8.45;4.95;;;;;;;;;;5002901;28;20022;-67
2023/12/23 12:27:42;;;;;;;8.63;4.68;;;;;;;;;;5011637;28;20096;-66
2023/12/23 12:30:12;;;;;;;9.25;4.68;;;;;;;;;;5004886;28;20118;-69
2023/12/23 12:32:58;;;;;;;13.82;4.38;;;;;;;;;;5003482;28;20514;-68
2023/12/23 12:35:24;;;;;;;9.57;4.60;;;;;;;;;;5003716;28;20037;-68
2023/12/23 12:37:50;;;;;;;8.02;4.55;;;;;;;;;;5012031;28;20022;-67
2023/12/23 12:40:16;;;;;;;8.32;4.15;;;;;;;;;;5013415;28;20023;-66
2023/12/23 12:42:50;;;;;;;7.25;4.00;;;;;;;;;;5014026;28;20105;-66
2023/12/23 12:45:16;;;;;;;7.40;4.30;;;;;;;;;;5016367;28;20105;-67
2023/12/23 12:47:42;;;;;;;5.50;3.70;;;;;;;;;;5013834;28;20080;-65
2023/12/23 12:50:08;;;;;;;7.00;4.47;;;;;;;;;;5012191;28;20476;-68
2023/12/23 12:52:35;;;;;;;6.40;4.07;;;;;;;;;;5015246;28;20026;-67
2023/12/23 12:55:04;;;;;;;6.93;4.55;;;;;;;;;;5002875;28;20030;-66
2023/12/23 12:57:30;;;;;;;6.57;4.15;;;;;;;;;;5001036;28;20024;-66
2023/12/23 12:59:57;;;;;;;5.55;4.03;;;;;;;;;;5000061;28;20101;-68
2023/12/23 13:02:23;;;;;;;7.85;4.68;;;;;;;;;;5000158;28;20451;-67
2023/12/23 13:04:49;;;;;;;6.18;4.13;;;;;;;;;;4994751;28;20026;-67
2023/12/23 13:07:15;;;;;;;5.95;4.18;;;;;;;;;;5002739;28;20454;-69
2023/12/23 13:09:42;;;;;;;5.57;3.70;;;;;;;;;;4994585;28;20033;-69
2023/12/23 13:12:09;;;;;;;7.15;3.85;;;;;;;;;;5002396;28;20105;-67
2023/12/23 13:14:35;;;;;;;6.65;4.10;;;;;;;;;;5005673;28;20041;-66
2023/12/23 13:17:01;;;;;;;6.97;4.38;;;;;;;;;;4997449;28;20021;-66
2023/12/23 13:19:27;;;;;;;10.05;4.60;;;;;;;;;;5004686;28;20452;-66
2023/12/23 13:21:53;;;;;;;6.07;4.20;;;;;;;;;;4995958;28;20033;-65
2023/12/23 13:24:19;;;;;;;6.80;4.43;;;;;;;;;;5006271;28;20097;-66
2023/12/23 13:26:45;;;;;;;7.15;4.07;;;;;;;;;;5005469;28;20109;-67
2023/12/23 13:29:11;;;;;;;8.38;4.28;;;;;;;;;;5005197;28;20076;-67
2023/12/23 13:31:37;;;;;;;7.70;4.28;;;;;;;;;;5002178;28;20561;-66
2023/12/23 13:34:03;;;;;;;9.60;4.70;;;;;;;;;;4996704;28;20034;-66
2023/12/23 13:36:29;;;;;;;6.72;4.22;;;;;;;;;;4996342;28;20098;-66
2023/12/23 13:38:56;;;;;;;5.15;4.00;;;;;;;;;;5002228;28;20030;-67
2023/12/23 13:41:28;;;;;;;7.20;4.47;;;;;;;;;;4994071;28;20106;-66
2023/12/23 13:43:54;;;;;;;6.38;3.97;;;;;;;;;;5000822;28;20029;-67
2023/12/23 13:46:20;;;;;;;6.97;4.20;;;;;;;;;;4994045;28;20030;-67
2023/12/23 13:48:46;;;;;;;5.88;4.32;;;;;;;;;;5002697;28;20044;-65
2023/12/23 13:51:12;;;;;;;9.07;4.75;;;;;;;;;;4996734;28;20065;-70
2023/12/23 13:53:38;;;;;;;6.68;3.72;;;;;;;;;;5004574;28;20029;-69
2023/12/23 13:56:08;;;;;;;22.52;5.30;;;;;;;;;;5000289;28;20022;-69
2023/12/23 13:58:34;;;;;;;12.00;4.45;;;;;;;;;;4997864;28;20030;-69
2023/12/23 14:01:01;;;;;;;5.85;4.15;;;;;;;;;;5000437;28;20072;-71
2023/12/23 14:03:26;;;;;;;16.98;4.57;;;;;;;;;;4996731;28;20084;-69
2023/12/23 14:05:52;;;;;;;10.35;4.95;;;;;;;;;;4991892;28;20034;-70
2023/12/23 14:08:18;;;;;;;11.70;4.03;;;;;;;;;;5006851;28;20037;-68
2023/12/23 14:10:45;;;;;;;9.32;4.20;;;;;;;;;;5015264;28;20029;-69
2023/12/23 14:13:11;;;;;;;7.68;4.05;;;;;;;;;;5003158;28;20660;-71
2023/12/23 14:15:37;;;;;;;15.40;4.57;;;;;;;;;;5007307;28;20056;-69
2023/12/23 14:18:04;;;;;;;18.42;3.90;;;;;;;;;;4998311;28;20046;-67
2023/12/23 14:20:30;;;;;;;7.82;4.00;;;;;;;;;;4994452;28;20023;-67
2023/12/23 14:22:56;;;;;;;8.98;3.92;;;;;;;;;;4994232;28;20029;-68
2023/12/23 14:25:23;;;;;;;10.25;4.60;;;;;;;;;;5022178;28;20049;-68
2023/12/23 14:27:49;;;;;;;10.20;4.45;;;;;;;;;;4999109;28;20023;-67
2023/12/23 14:30:15;;;;;;;12.68;3.92;;;;;;;;;;4994291;28;20030;-69
2023/12/23 14:32:41;;;;;;;8.45;3.50;;;;;;;;;;5024032;28;20048;-68